createdAt,value
2018-01-29T00:00:42.089Z,35.7
2018-01-29T00:01:42.429Z,35.8
2018-01-29T00:02:42.296Z,36
2018-01-29T00:03:41.971Z,36.1
2018-01-29T00:04:41.669Z,36.1
2018-01-29T00:05:42.108Z,36.4
2018-01-29T00:06:42.076Z,36.8
2018-01-29T00:07:42.084Z,37.1
2018-01-29T00:08:41.534Z,37.3
2018-01-29T00:09:41.886Z,37.4
2018-01-29T00:10:41.715Z,35
2018-01-29T00:11:41.394Z,30.5
2018-01-29T00:12:41.862Z,29.2
2018-01-29T00:13:41.509Z,29.7
2018-01-29T00:14:41.185Z,31.5
2018-01-29T00:15:41.638Z,28.4
2018-01-29T00:16:41.161Z,25.5
2018-01-29T00:17:41.195Z,24.9
2018-01-29T00:18:40.933Z,27.3
2018-01-29T00:19:41.157Z,29.9
2018-01-29T00:20:41.294Z,31.4
2018-01-29T00:21:41.169Z,32.5
2018-01-29T00:22:41.392Z,33.3
2018-01-29T00:23:40.564Z,33.9
2018-01-29T00:24:40.478Z,34.4
2018-01-29T00:25:40.504Z,34.9
2018-01-29T00:26:40.706Z,35.4
2018-01-29T00:27:40.767Z,35.6
2018-01-29T00:28:40.346Z,35.8
2018-01-29T00:29:40.191Z,35.9
2018-01-29T00:30:40.038Z,35.9
2018-01-29T00:31:39.841Z,36
2018-01-29T00:32:39.842Z,36
2018-01-29T00:33:40.328Z,36.4
2018-01-29T00:34:39.997Z,36.8
2018-01-29T00:35:39.594Z,37.1
2018-01-29T00:36:40.320Z,37.4
2018-01-29T00:37:39.714Z,37.2
2018-01-29T00:38:39.970Z,31.9
2018-01-29T00:39:39.574Z,29.7
2018-01-29T00:40:39.679Z,28.9
2018-01-29T00:41:39.256Z,28.4
2018-01-29T00:42:39.920Z,28.1
2018-01-29T00:43:39.183Z,28.1
2018-01-29T00:44:39.411Z,30.9
2018-01-29T00:45:39.103Z,30.8
2018-01-29T00:46:39.337Z,26.3
2018-01-29T00:47:39.093Z,25.3
2018-01-29T00:48:39.146Z,25.9
2018-01-29T00:49:39.094Z,29.1
2018-01-29T00:50:38.908Z,30.8
2018-01-29T00:51:38.651Z,32.1
2018-01-29T00:52:38.602Z,33.6
2018-01-29T00:53:38.678Z,35.1
2018-01-29T00:54:38.806Z,36.3
2018-01-29T00:55:38.646Z,37.2
2018-01-29T00:56:38.421Z,37.8
2018-01-29T00:57:38.620Z,37.9
2018-01-29T00:58:38.729Z,37.9
2018-01-29T00:59:38.189Z,37.6
2018-01-29T01:00:38.246Z,37.4
2018-01-29T01:01:37.874Z,37.3
2018-01-29T01:02:37.805Z,37.2
2018-01-29T01:03:38.072Z,37.3
2018-01-29T01:04:38.118Z,34.4
2018-01-29T01:05:38.063Z,30.7
2018-01-29T01:06:37.687Z,29.5
2018-01-29T01:07:37.473Z,29.8
2018-01-29T01:08:37.823Z,31.1
2018-01-29T01:09:37.387Z,28.4
2018-01-29T01:10:37.251Z,25.6
2018-01-29T01:11:37.331Z,25
2018-01-29T01:12:37.770Z,27.2
2018-01-29T01:13:37.069Z,29.9
2018-01-29T01:14:37.508Z,31.3
2018-01-29T01:15:36.964Z,32.6
2018-01-29T01:16:36.969Z,33.4
2018-01-29T01:17:36.676Z,34
2018-01-29T01:18:36.975Z,34.6
2018-01-29T01:19:37.029Z,35.1
2018-01-29T01:20:36.549Z,35.4
2018-01-29T01:21:36.837Z,35.6
2018-01-29T01:22:37.282Z,35.8
2018-01-29T01:23:36.364Z,36
2018-01-29T01:24:36.602Z,36
2018-01-29T01:25:36.169Z,36.1
2018-01-29T01:26:36.427Z,36.1
2018-01-29T01:27:36.037Z,36.3
2018-01-29T01:28:36.176Z,36.7
2018-01-29T01:29:36.166Z,37
2018-01-29T01:30:36.203Z,36.9
2018-01-29T01:31:35.860Z,31.9
2018-01-29T01:32:35.904Z,29.6
2018-01-29T01:33:35.942Z,28.9
2018-01-29T01:34:36.294Z,30.8
2018-01-29T01:35:35.767Z,31.1
2018-01-29T01:36:35.908Z,26.3
2018-01-29T01:37:35.495Z,24.9
2018-01-29T01:38:35.485Z,25
2018-01-29T01:39:35.452Z,28.5
2018-01-29T01:40:35.779Z,30.4
2018-01-29T01:41:35.260Z,31.8
2018-01-29T01:42:34.810Z,32.6
2018-01-29T01:43:35.275Z,33.4
2018-01-29T01:44:34.880Z,34
2018-01-29T01:45:34.948Z,34.6
2018-01-29T01:46:35.200Z,34.9
2018-01-29T01:47:35.041Z,35.3
2018-01-29T01:48:34.601Z,35.4
2018-01-29T01:49:34.592Z,35.6
2018-01-29T01:50:34.788Z,35.7
2018-01-29T01:51:34.458Z,35.8
2018-01-29T01:52:34.729Z,35.8
2018-01-29T01:53:34.324Z,35.9
2018-01-29T01:54:34.466Z,36.3
2018-01-29T01:55:34.193Z,36.7
2018-01-29T01:56:35.022Z,37
2018-01-29T01:57:34.789Z,37.3
2018-01-29T01:58:34.491Z,37.5
2018-01-29T01:59:34.144Z,36.9
2018-01-29T02:00:34.072Z,31.4
2018-01-29T02:01:33.864Z,29.3
2018-01-29T02:02:34.002Z,28.6
2018-01-29T02:03:33.519Z,30.6
2018-01-29T02:04:33.875Z,30.3
2018-01-29T02:05:33.873Z,25.6
2018-01-29T02:06:33.787Z,24.6
2018-01-29T02:07:34.016Z,25.3
2018-01-29T02:08:33.624Z,29
2018-01-29T02:09:33.636Z,30.8
2018-01-29T02:10:33.967Z,32.2
2018-01-29T02:11:33.236Z,33.1
2018-01-29T02:12:32.997Z,33.8
2018-01-29T02:13:33.330Z,34.5
2018-01-29T02:14:32.892Z,35
2018-01-29T02:15:33.218Z,35.4
2018-01-29T02:16:33.031Z,35.5
2018-01-29T02:17:32.963Z,35.6
2018-01-29T02:18:32.507Z,35.6
2018-01-29T02:19:33.072Z,35.7
2018-01-29T02:20:32.864Z,35.7
2018-01-29T02:21:32.560Z,35.8
2018-01-29T02:22:32.514Z,35.8
2018-01-29T02:23:32.648Z,36.1
2018-01-29T02:24:32.801Z,36.5
2018-01-29T02:25:32.449Z,36.7
2018-01-29T02:26:32.464Z,36.9
2018-01-29T02:27:32.413Z,37.1
2018-01-29T02:28:32.193Z,34.4
2018-01-29T02:29:32.361Z,30.1
2018-01-29T02:30:32.142Z,28.8
2018-01-29T02:31:31.705Z,29.1
2018-01-29T02:32:31.915Z,30.8
2018-01-29T02:33:31.689Z,28.4
2018-01-29T02:34:31.675Z,25.2
2018-01-29T02:35:31.679Z,24.5
2018-01-29T02:36:31.427Z,26.2
2018-01-29T02:37:31.481Z,29.1
2018-01-29T02:38:31.430Z,30.8
2018-01-29T02:39:31.089Z,32
2018-01-29T02:40:31.295Z,32.7
2018-01-29T02:41:31.638Z,33.3
2018-01-29T02:42:30.961Z,33.8
2018-01-29T02:43:30.912Z,34.2
2018-01-29T02:44:30.770Z,34.4
2018-01-29T02:45:30.927Z,34.6
2018-01-29T02:46:30.923Z,34.8
2018-01-29T02:47:30.683Z,34.9
2018-01-29T02:48:30.608Z,34.9
2018-01-29T02:49:30.275Z,34.9
2018-01-29T02:50:30.416Z,35
2018-01-29T02:51:31.270Z,35.3
2018-01-29T02:52:30.449Z,35.8
2018-01-29T02:53:30.308Z,36.2
2018-01-29T02:54:29.850Z,36.4
2018-01-29T02:55:29.791Z,36.8
2018-01-29T02:56:30.088Z,37
2018-01-29T02:57:29.837Z,36.7
2018-01-29T02:58:29.913Z,31.4
2018-01-29T02:59:30.237Z,29.2
2018-01-29T03:00:30.028Z,28.5
2018-01-29T03:01:29.658Z,30.8
2018-01-29T03:02:29.604Z,30.9
2018-01-29T03:03:29.585Z,26.1
2018-01-29T03:04:29.318Z,24.8
2018-01-29T03:05:29.111Z,25.1
2018-01-29T03:06:28.967Z,28.6
2018-01-29T03:07:29.443Z,30.5
2018-01-29T03:08:29.027Z,31.8
2018-01-29T03:09:29.228Z,32.7
2018-01-29T03:10:29.047Z,33.3
2018-01-29T03:11:28.493Z,33.7
2018-01-29T03:12:29.028Z,34.1
2018-01-29T03:13:28.964Z,34.4
2018-01-29T03:14:28.823Z,34.7
2018-01-29T03:15:28.699Z,34.8
2018-01-29T03:16:28.164Z,34.9
2018-01-29T03:17:28.503Z,35
2018-01-29T03:18:28.236Z,35.1
2018-01-29T03:19:27.940Z,35.1
2018-01-29T03:20:28.346Z,35.3
2018-01-29T03:21:28.416Z,35.8
2018-01-29T03:22:28.172Z,36.2
2018-01-29T03:23:28.091Z,36.5
2018-01-29T03:24:27.669Z,36.7
2018-01-29T03:25:28.019Z,36.9
2018-01-29T03:26:27.608Z,37.1
2018-01-29T03:27:27.526Z,37.3
2018-01-29T03:28:27.456Z,36.9
2018-01-29T03:29:27.269Z,31.4
2018-01-29T03:30:27.000Z,29.3
2018-01-29T03:31:27.391Z,28.7
2018-01-29T03:32:27.494Z,30.9
2018-01-29T03:33:27.329Z,30.6
2018-01-29T03:34:26.840Z,25.9
2018-01-29T03:35:27.071Z,24.9
2018-01-29T03:36:26.832Z,25.4
2018-01-29T03:37:27.279Z,29
2018-01-29T03:38:26.906Z,30.8
2018-01-29T03:39:26.668Z,32
2018-01-29T03:40:26.503Z,32.8
2018-01-29T03:41:26.548Z,33.3
2018-01-29T03:42:26.453Z,33.8
2018-01-29T03:43:27.280Z,34.3
2018-01-29T03:44:26.779Z,34.7
2018-01-29T03:45:26.245Z,34.9
2018-01-29T03:46:26.450Z,35.1
2018-01-29T03:47:26.114Z,35.3
2018-01-29T03:48:26.117Z,35.4
2018-01-29T03:49:25.993Z,35.5
2018-01-29T03:50:25.438Z,31.4
2018-01-29T03:51:25.927Z,29.1
2018-01-29T03:52:25.670Z,28.3
2018-01-29T03:53:25.780Z,29.4
2018-01-29T03:54:25.172Z,30.5
2018-01-29T03:55:25.756Z,26.3
2018-01-29T03:56:25.473Z,24.6
2018-01-29T03:57:25.072Z,24.2
2018-01-29T03:58:25.325Z,27.6
2018-01-29T03:59:24.914Z,29.8
2018-01-29T04:00:24.730Z,31.3
2018-01-29T04:01:25.116Z,32.4
2018-01-29T04:02:24.845Z,33.3
2018-01-29T04:03:25.028Z,33.9
2018-01-29T04:04:24.596Z,34.6
2018-01-29T04:05:24.820Z,35.1
2018-01-29T04:06:24.533Z,35.5
2018-01-29T04:07:24.241Z,35.8
2018-01-29T04:08:24.049Z,36
2018-01-29T04:09:24.402Z,36.1
2018-01-29T04:10:24.370Z,36.3
2018-01-29T04:11:23.958Z,36.3
2018-01-29T04:12:23.855Z,36.4
2018-01-29T04:13:23.813Z,36.8
2018-01-29T04:14:23.925Z,37.2
2018-01-29T04:15:23.684Z,37.4
2018-01-29T04:16:23.791Z,37.4
2018-01-29T04:17:23.352Z,37.4
2018-01-29T04:18:24.107Z,36.3
2018-01-29T04:19:23.650Z,31
2018-01-29T04:20:23.638Z,29.4
2018-01-29T04:21:23.273Z,29.1
2018-01-29T04:22:24.014Z,30.8
2018-01-29T04:23:23.232Z,29.3
2018-01-29T04:24:23.162Z,25.1
2018-01-29T04:25:22.790Z,24.3
2018-01-29T04:26:23.396Z,25.9
2018-01-29T04:27:22.992Z,29.3
2018-01-29T04:28:23.261Z,31
2018-01-29T04:29:22.611Z,32.4
2018-01-29T04:30:22.680Z,33.3
2018-01-29T04:31:22.606Z,34
2018-01-29T04:32:22.598Z,34.8
2018-01-29T04:33:22.621Z,35.3
2018-01-29T04:34:22.051Z,35.7
2018-01-29T04:35:22.461Z,35.9
2018-01-29T04:36:22.372Z,36.1
2018-01-29T04:37:21.653Z,36.2
2018-01-29T04:38:21.992Z,36.3
2018-01-29T04:39:21.874Z,36.3
2018-01-29T04:40:21.971Z,36.4
2018-01-29T04:41:21.489Z,36.6
2018-01-29T04:42:21.504Z,33.9
2018-01-29T04:43:21.949Z,30.2
2018-01-29T04:44:21.478Z,29
2018-01-29T04:45:21.492Z,29.3
2018-01-29T04:46:21.495Z,30.8
2018-01-29T04:47:21.243Z,27.6
2018-01-29T04:48:21.275Z,25
2018-01-29T04:49:21.193Z,24.4
2018-01-29T04:50:20.994Z,26.9
2018-01-29T04:51:20.979Z,29.5
2018-01-29T04:52:20.844Z,31
2018-01-29T04:53:21.268Z,32.1
2018-01-29T04:54:20.898Z,32.8
2018-01-29T04:55:20.837Z,33.4
2018-01-29T04:56:20.459Z,33.9
2018-01-29T04:57:20.917Z,34.3
2018-01-29T04:58:20.611Z,34.4
2018-01-29T04:59:20.281Z,34.5
2018-01-29T05:00:20.574Z,34.6
2018-01-29T05:01:20.102Z,34.7
2018-01-29T05:02:20.049Z,34.8
2018-01-29T05:03:20.081Z,34.8
2018-01-29T05:04:20.695Z,34.8
2018-01-29T05:05:20.222Z,35.2
2018-01-29T05:06:19.714Z,33.6
2018-01-29T05:07:20.275Z,29.3
2018-01-29T05:08:19.522Z,28
2018-01-29T05:09:19.607Z,28.2
2018-01-29T05:10:19.713Z,30.1
2018-01-29T05:11:19.324Z,27.9
2018-01-29T05:12:19.307Z,24.7
2018-01-29T05:13:19.705Z,23.9
2018-01-29T05:14:19.591Z,25.9
2018-01-29T05:15:19.332Z,28.7
2018-01-29T05:16:19.433Z,30.3
2018-01-29T05:17:19.003Z,31.6
2018-01-29T05:18:18.717Z,32.4
2018-01-29T05:19:18.821Z,33.1
2018-01-29T05:20:19.112Z,33.8
2018-01-29T05:21:18.641Z,34.4
2018-01-29T05:22:18.374Z,34.9
2018-01-29T05:23:18.079Z,35.1
2018-01-29T05:24:19.004Z,35.2
2018-01-29T05:25:18.145Z,35.3
2018-01-29T05:26:18.393Z,35.3
2018-01-29T05:27:18.431Z,32.1
2018-01-29T05:28:17.857Z,29.1
2018-01-29T05:29:18.106Z,28.1
2018-01-29T05:30:18.409Z,28.6
2018-01-29T05:31:18.071Z,30.1
2018-01-29T05:32:17.947Z,26.7
2018-01-29T05:33:17.294Z,24.2
2018-01-29T05:34:17.538Z,23.6
2018-01-29T05:35:17.566Z,26.1
2018-01-29T05:36:17.386Z,28.5
2018-01-29T05:37:17.081Z,29.9
2018-01-29T05:38:17.105Z,30.9
2018-01-29T05:39:16.914Z,31.3
2018-01-29T05:40:17.218Z,31.5
2018-01-29T05:41:17.417Z,31.8
2018-01-29T05:42:16.977Z,32.2
2018-01-29T05:43:17.059Z,32.6
2018-01-29T05:44:16.867Z,33.1
2018-01-29T05:45:16.571Z,33.4
2018-01-29T05:46:16.601Z,33.9
2018-01-29T05:47:16.821Z,34.1
2018-01-29T05:48:16.675Z,34.3
2018-01-29T05:49:16.353Z,34.4
2018-01-29T05:50:16.236Z,34.9
2018-01-29T05:51:16.464Z,31
2018-01-29T05:52:15.804Z,28.3
2018-01-29T05:53:16.017Z,27.4
2018-01-29T05:54:16.427Z,28.7
2018-01-29T05:55:16.038Z,29.8
2018-01-29T05:56:16.023Z,30.6
2018-01-29T05:57:15.745Z,30.9
2018-01-29T05:58:15.781Z,32.4
2018-01-29T05:59:16.038Z,34.1
2018-01-29T06:00:15.462Z,35.6
2018-01-29T06:01:15.564Z,36.7
2018-01-29T06:02:15.494Z,37.2
2018-01-29T06:03:15.481Z,37.4
2018-01-29T06:04:15.846Z,37.5
2018-01-29T06:05:15.632Z,37.6
2018-01-29T06:06:14.678Z,37.7
2018-01-29T06:07:15.167Z,37.7
2018-01-29T06:08:15.092Z,37.8
2018-01-29T06:09:14.777Z,38.1
2018-01-29T06:10:14.822Z,38.4
2018-01-29T06:11:14.617Z,38.4
2018-01-29T06:12:14.706Z,38.1
2018-01-29T06:13:14.270Z,37.8
2018-01-29T06:14:14.608Z,33.3
2018-01-29T06:15:14.331Z,29.6
2018-01-29T06:16:14.746Z,28.4
2018-01-29T06:17:13.931Z,29.8
2018-01-29T06:18:14.198Z,31.1
2018-01-29T06:19:13.708Z,26.4
2018-01-29T06:20:13.814Z,24.3
2018-01-29T06:21:13.893Z,23.9
2018-01-29T06:22:14.139Z,27.6
2018-01-29T06:23:13.313Z,29.5
2018-01-29T06:24:14.319Z,25.4
2018-01-29T06:25:14.014Z,23.9
2018-01-29T06:26:13.575Z,23.8
2018-01-29T06:27:13.827Z,27.4
2018-01-29T06:28:13.065Z,28.6
2018-01-29T06:29:14.087Z,24.4
2018-01-29T06:30:13.481Z,23.1
2018-01-29T06:31:13.159Z,23.4
2018-01-29T06:32:12.845Z,26.9
2018-01-29T06:33:13.116Z,28.8
2018-01-29T06:34:13.177Z,30.4
2018-01-29T06:35:13.161Z,31.4
2018-01-29T06:36:13.014Z,31.6
2018-01-29T06:37:12.724Z,27.3
2018-01-29T06:38:12.596Z,25.7
2018-01-29T06:39:12.443Z,25.4
2018-01-29T06:40:12.958Z,28.1
2018-01-29T06:41:11.987Z,28.9
2018-01-29T06:42:13.146Z,24.6
2018-01-29T06:43:12.293Z,23.3
2018-01-29T06:44:12.303Z,23.7
2018-01-29T06:45:11.863Z,27.3
2018-01-29T06:46:12.286Z,27.6
2018-01-29T06:47:12.048Z,23.9
2018-01-29T06:48:11.942Z,22.7
2018-01-29T06:49:11.877Z,23.8
2018-01-29T06:50:11.817Z,27.2
2018-01-29T06:51:11.679Z,26.8
2018-01-29T06:52:11.610Z,23.7
2018-01-29T06:53:11.542Z,22.8
2018-01-29T06:54:12.099Z,24.5
2018-01-29T06:55:11.195Z,27.4
2018-01-29T06:56:11.354Z,26.1
2018-01-29T06:57:10.915Z,23.3
2018-01-29T06:58:11.688Z,22.5
2018-01-29T06:59:11.191Z,24.6
2018-01-29T07:00:10.660Z,27.1
2018-01-29T07:01:10.819Z,24.7
2018-01-29T07:02:10.825Z,22.1
2018-01-29T07:03:11.041Z,21.4
2018-01-29T07:04:10.686Z,24.4
2018-01-29T07:05:10.641Z,26.7
2018-01-29T07:06:10.169Z,23.6
2018-01-29T07:07:10.249Z,21.8
2018-01-29T07:08:10.157Z,21.4
2018-01-29T07:09:10.020Z,24.5
2018-01-29T07:10:09.856Z,26.2
2018-01-29T07:11:09.667Z,22.8
2018-01-29T07:12:09.952Z,21.1
2018-01-29T07:13:10.549Z,21.1
2018-01-29T07:14:09.582Z,24.6
2018-01-29T07:15:09.624Z,25.6
2018-01-29T07:16:09.519Z,21.7
2018-01-29T07:17:09.388Z,20.4
2018-01-29T07:18:09.666Z,21.2
2018-01-29T07:19:09.514Z,24.9
2018-01-29T07:20:09.137Z,25.3
2018-01-29T07:21:09.000Z,21.6
2018-01-29T07:22:08.778Z,20.6
2018-01-29T07:23:09.412Z,21.9
2018-01-29T07:24:09.205Z,25
2018-01-29T07:25:08.721Z,24.5
2018-01-29T07:26:08.857Z,20.1
2018-01-29T07:27:08.928Z,19.2
2018-01-29T07:28:08.863Z,21.7
2018-01-29T07:29:08.603Z,25
2018-01-29T07:30:09.012Z,23.7
2018-01-29T07:31:08.532Z,19.4
2018-01-29T07:32:08.311Z,18.6
2018-01-29T07:33:08.789Z,22.1
2018-01-29T07:34:07.912Z,25.1
2018-01-29T07:35:07.940Z,22.8
2018-01-29T07:36:07.875Z,20.3
2018-01-29T07:37:08.202Z,19.9
2018-01-29T07:38:08.538Z,23.1
2018-01-29T07:39:07.808Z,25.4
2018-01-29T07:40:07.263Z,22.3
2018-01-29T07:41:07.388Z,18.6
2018-01-29T07:42:08.085Z,18.3
2018-01-29T07:43:07.435Z,23.2
2018-01-29T07:44:07.767Z,25.4
2018-01-29T07:45:07.753Z,22.1
2018-01-29T07:46:07.380Z,20.1
2018-01-29T07:47:07.047Z,19.8
2018-01-29T07:48:07.130Z,22.9
2018-01-29T07:49:06.863Z,25.7
2018-01-29T07:50:07.250Z,22.9
2018-01-29T07:51:06.801Z,21.1
2018-01-29T07:52:07.232Z,20.9
2018-01-29T07:53:06.844Z,24.1
2018-01-29T07:54:06.824Z,26
2018-01-29T07:55:06.521Z,22.5
2018-01-29T07:56:06.533Z,20.8
2018-01-29T07:57:06.765Z,20.5
2018-01-29T07:58:06.448Z,20.6
2018-01-29T07:59:06.249Z,23.4
2018-01-29T08:00:06.513Z,25.6
2018-01-29T08:01:06.002Z,22.7
2018-01-29T08:02:06.428Z,20.1
2018-01-29T08:03:05.901Z,19.8
2018-01-29T08:04:05.682Z,19.9
2018-01-29T08:05:05.862Z,22.6
2018-01-29T08:06:05.894Z,25.3
2018-01-29T08:07:06.048Z,23.4
2018-01-29T08:08:05.698Z,20.9
2018-01-29T08:09:06.106Z,20.4
2018-01-29T08:10:05.460Z,20.4
2018-01-29T08:11:05.207Z,22.2
2018-01-29T08:12:05.560Z,25.1
2018-01-29T08:13:05.466Z,24.2
2018-01-29T08:14:05.185Z,20.6
2018-01-29T08:15:05.424Z,20
2018-01-29T08:16:05.086Z,22.9
2018-01-29T08:17:05.017Z,25.9
2018-01-29T08:18:05.014Z,24.2
2018-01-29T08:19:05.018Z,20.8
2018-01-29T08:20:05.024Z,20.4
2018-01-29T08:21:04.915Z,22.8
2018-01-29T08:22:04.730Z,25.9
2018-01-29T08:23:04.480Z,24.8
2018-01-29T08:24:04.891Z,22.3
2018-01-29T08:25:04.448Z,21.8
2018-01-29T08:26:04.461Z,21.8
2018-01-29T08:27:04.688Z,21.9
2018-01-29T08:28:04.579Z,23.8
2018-01-29T08:29:04.608Z,26.3
2018-01-29T08:30:04.292Z,24.1
2018-01-29T08:31:04.047Z,22
2018-01-29T08:32:04.355Z,21.6
2018-01-29T08:33:04.598Z,21.6
2018-01-29T08:34:03.840Z,22.8
2018-01-29T08:35:04.287Z,25.8
2018-01-29T08:36:03.563Z,25.5
2018-01-29T08:37:04.120Z,22.3
2018-01-29T08:38:03.871Z,21.7
2018-01-29T08:39:03.922Z,21.6
2018-01-29T08:40:04.120Z,22.3
2018-01-29T08:41:03.570Z,25.6
2018-01-29T08:42:03.625Z,26.3
2018-01-29T08:43:03.537Z,22.8
2018-01-29T08:44:03.507Z,21.8
2018-01-29T08:45:03.384Z,21.8
2018-01-29T08:46:03.844Z,21.9
2018-01-29T08:47:02.821Z,22.2
2018-01-29T08:48:03.050Z,25.3
2018-01-29T08:49:03.526Z,26.7
2018-01-29T08:50:02.922Z,23.2
2018-01-29T08:51:02.919Z,22
2018-01-29T08:52:02.999Z,21.9
2018-01-29T08:53:02.969Z,22
2018-01-29T08:54:02.459Z,25.1
2018-01-29T08:55:02.262Z,27.1
2018-01-29T08:56:02.730Z,23.8
2018-01-29T08:57:02.369Z,22.3
2018-01-29T08:58:02.874Z,22
2018-01-29T08:59:02.215Z,22.1
2018-01-29T09:00:02.410Z,24.8
2018-01-29T09:01:01.786Z,27.8
2018-01-29T09:02:02.382Z,24.9
2018-01-29T09:03:02.090Z,22.5
2018-01-29T09:04:02.259Z,22.1
2018-01-29T09:05:01.858Z,22.1
2018-01-29T09:06:02.152Z,24.3
2018-01-29T09:07:01.572Z,27.6
2018-01-29T09:08:01.825Z,26.6
2018-01-29T09:09:01.207Z,23.9
2018-01-29T09:10:01.803Z,23.4
2018-01-29T09:11:01.479Z,23.4
2018-01-29T09:12:01.188Z,24.1
2018-01-29T09:13:01.693Z,26.9
2018-01-29T09:14:01.415Z,27.3
2018-01-29T09:15:01.595Z,23.6
2018-01-29T09:16:01.083Z,22.9
2018-01-29T09:17:00.805Z,22.9
2018-01-29T09:18:00.991Z,23
2018-01-29T09:19:01.330Z,23.1
2018-01-29T09:20:00.828Z,23.3
2018-01-29T09:21:00.639Z,23.4
2018-01-29T09:22:00.484Z,23.6
2018-01-29T09:23:00.350Z,23.8
2018-01-29T09:24:00.211Z,23.8
2018-01-29T09:25:00.761Z,23.9
2018-01-29T09:26:01.069Z,23.9
2018-01-29T09:26:59.958Z,24
2018-01-29T09:28:00.176Z,24
2018-01-29T09:28:59.811Z,24
2018-01-29T09:30:00.356Z,24.1
2018-01-29T09:30:59.899Z,24.1
2018-01-29T09:31:59.840Z,24.2
2018-01-29T09:32:59.572Z,24.2
2018-01-29T09:33:59.825Z,24.3
2018-01-29T09:34:59.996Z,24.3
2018-01-29T09:35:59.715Z,24.3
2018-01-29T09:36:59.763Z,24.2
2018-01-29T09:37:59.463Z,24.2
2018-01-29T09:38:59.186Z,24.2
2018-01-29T09:39:59.423Z,24.3
2018-01-29T09:40:59.311Z,24.3
2018-01-29T09:41:58.861Z,24.3
2018-01-29T09:42:59.033Z,24.3
2018-01-29T09:43:59.142Z,24.3
2018-01-29T09:44:59.285Z,24.3
2018-01-29T09:45:58.678Z,24.3
2018-01-29T09:46:58.818Z,24.3
2018-01-29T09:47:58.616Z,24.3
2018-01-29T09:48:59.008Z,24.9
2018-01-29T09:49:58.519Z,27.1
2018-01-29T09:50:58.502Z,26.9
2018-01-29T09:51:58.780Z,23.8
2018-01-29T09:52:58.213Z,23.3
2018-01-29T09:53:58.175Z,23.3
2018-01-29T09:54:58.261Z,24.9
2018-01-29T09:55:58.203Z,28.3
2018-01-29T09:56:57.770Z,28.2
2018-01-29T09:57:57.901Z,25.1
2018-01-29T09:58:58.233Z,22.6
2018-01-29T09:59:57.788Z,25.7
2018-01-29T10:00:57.901Z,28.5
2018-01-29T10:01:57.626Z,26.2
2018-01-29T10:02:57.557Z,23.9
2018-01-29T10:03:58.291Z,23.6
2018-01-29T10:04:57.817Z,25.4
2018-01-29T10:05:57.341Z,27.6
2018-01-29T10:06:57.924Z,26.3
2018-01-29T10:07:57.866Z,23.8
2018-01-29T10:08:56.884Z,23.3
2018-01-29T10:09:57.151Z,23.3
2018-01-29T10:10:57.144Z,24.4
2018-01-29T10:11:56.994Z,26.9
2018-01-29T10:12:56.964Z,26.3
2018-01-29T10:13:56.885Z,23.3
2018-01-29T10:14:57.046Z,22.7
2018-01-29T10:15:56.576Z,22.6
2018-01-29T10:16:56.727Z,23.2
2018-01-29T10:17:56.557Z,25.9
2018-01-29T10:18:56.555Z,26.6
2018-01-29T10:19:56.602Z,23.4
2018-01-29T10:20:56.254Z,22.5
2018-01-29T10:21:56.321Z,23.7
2018-01-29T10:22:56.262Z,26.7
2018-01-29T10:23:56.100Z,26.5
2018-01-29T10:24:55.852Z,23.3
2018-01-29T10:25:56.493Z,22.6
2018-01-29T10:26:55.861Z,24.1
2018-01-29T10:27:56.086Z,26.9
2018-01-29T10:28:55.662Z,26.3
2018-01-29T10:29:56.076Z,23.6
2018-01-29T10:30:56.390Z,23
2018-01-29T10:31:55.529Z,23.6
2018-01-29T10:32:55.607Z,26.6
2018-01-29T10:33:55.892Z,27.1
2018-01-29T10:34:55.789Z,23.7
2018-01-29T10:35:55.278Z,22.9
2018-01-29T10:36:55.814Z,22.9
2018-01-29T10:37:55.524Z,23.2
2018-01-29T10:38:55.254Z,26.3
2018-01-29T10:39:55.707Z,27.5
2018-01-29T10:40:55.250Z,24.3
2018-01-29T10:41:55.375Z,23.2
2018-01-29T10:42:55.330Z,23.1
2018-01-29T10:43:55.552Z,23.1
2018-01-29T10:44:54.868Z,25.8
2018-01-29T10:45:54.475Z,27.6
2018-01-29T10:46:54.810Z,24.3
2018-01-29T10:47:54.780Z,23
2018-01-29T10:48:54.588Z,22.8
2018-01-29T10:49:54.890Z,22.8
2018-01-29T10:50:54.318Z,25.4
2018-01-29T10:51:54.355Z,27.7
2018-01-29T10:52:54.348Z,25
2018-01-29T10:53:54.457Z,23.4
2018-01-29T10:54:53.951Z,23.1
2018-01-29T10:55:54.078Z,23.1
2018-01-29T10:56:54.059Z,25
2018-01-29T10:57:53.868Z,27.4
2018-01-29T10:58:54.213Z,25.7
2018-01-29T10:59:53.807Z,23.8
2018-01-29T11:00:53.640Z,23.3
2018-01-29T11:01:54.217Z,23.3
2018-01-29T11:02:53.693Z,24.7
2018-01-29T11:03:53.421Z,27.4
2018-01-29T11:04:53.379Z,26.6
2018-01-29T11:05:53.251Z,23.8
2018-01-29T11:06:53.583Z,23.3
2018-01-29T11:07:53.666Z,23.2
2018-01-29T11:08:53.163Z,24.2
2018-01-29T11:09:53.359Z,27.1
2018-01-29T11:10:53.056Z,27.2
2018-01-29T11:11:53.254Z,24.3
2018-01-29T11:12:52.773Z,23.6
2018-01-29T11:13:52.943Z,23.4
2018-01-29T11:14:52.661Z,23.8
2018-01-29T11:15:53.443Z,26.8
2018-01-29T11:16:52.931Z,27.8
2018-01-29T11:17:52.772Z,24.4
2018-01-29T11:18:52.595Z,23.5
2018-01-29T11:19:52.339Z,23.3
2018-01-29T11:20:52.096Z,23.4
2018-01-29T11:21:52.571Z,26.1
2018-01-29T11:22:52.132Z,27.6
2018-01-29T11:23:52.073Z,24.3
2018-01-29T11:24:51.871Z,23.1
2018-01-29T11:25:52.182Z,22.9
2018-01-29T11:26:51.907Z,22.9
2018-01-29T11:27:51.850Z,25.4
2018-01-29T11:28:51.644Z,27.6
2018-01-29T11:29:51.445Z,24.6
2018-01-29T11:30:51.584Z,23.1
2018-01-29T11:31:51.641Z,22.8
2018-01-29T11:32:51.637Z,23.1
2018-01-29T11:33:51.153Z,26.3
2018-01-29T11:34:51.512Z,27.9
2018-01-29T11:35:51.330Z,24.3
2018-01-29T11:36:51.041Z,23.4
2018-01-29T11:37:51.299Z,23.2
2018-01-29T11:38:50.711Z,24.7
2018-01-29T11:39:51.058Z,27.5
2018-01-29T11:40:51.591Z,26.3
2018-01-29T11:41:51.221Z,23.6
2018-01-29T11:42:50.712Z,23.1
2018-01-29T11:43:50.867Z,23.8
2018-01-29T11:44:50.785Z,26.5
2018-01-29T11:45:50.531Z,27
2018-01-29T11:46:50.732Z,23.7
2018-01-29T11:47:50.318Z,23
2018-01-29T11:48:50.908Z,23.1
2018-01-29T11:49:50.155Z,26.2
2018-01-29T11:50:49.988Z,27.5
2018-01-29T11:51:50.644Z,24.1
2018-01-29T11:52:50.166Z,23.1
2018-01-29T11:53:50.458Z,23
2018-01-29T11:54:49.983Z,25.8
2018-01-29T11:55:49.807Z,27.6
2018-01-29T11:56:50.323Z,25.1
2018-01-29T11:57:49.909Z,23.6
2018-01-29T11:58:49.531Z,23.4
2018-01-29T11:59:49.649Z,25.6
2018-01-29T12:00:49.870Z,28
2018-01-29T12:01:49.784Z,25.8
2018-01-29T12:02:49.288Z,23.9
2018-01-29T12:03:49.271Z,23.6
2018-01-29T12:04:49.131Z,25.3
2018-01-29T12:05:49.995Z,27.8
2018-01-29T12:06:49.067Z,26.2
2018-01-29T12:07:49.112Z,23.9
2018-01-29T12:08:49.343Z,23.4
2018-01-29T12:09:49.019Z,24.6
2018-01-29T12:10:48.580Z,27.3
2018-01-29T12:11:48.736Z,26.7
2018-01-29T12:12:48.588Z,24
2018-01-29T12:13:48.794Z,23.4
2018-01-29T12:14:49.014Z,24.9
2018-01-29T12:15:49.005Z,27.4
2018-01-29T12:16:48.428Z,26.3
2018-01-29T12:17:48.619Z,24
2018-01-29T12:18:48.527Z,23.4
2018-01-29T12:19:48.617Z,25.6
2018-01-29T12:20:48.223Z,28
2018-01-29T12:21:48.030Z,26
2018-01-29T12:22:48.090Z,23.9
2018-01-29T12:23:47.710Z,23.5
2018-01-29T12:24:48.251Z,25.9
2018-01-29T12:25:47.722Z,28.1
2018-01-29T12:26:47.798Z,25.3
2018-01-29T12:27:47.319Z,23.7
2018-01-29T12:28:48.003Z,23.4
2018-01-29T12:29:47.497Z,26.3
2018-01-29T12:30:47.236Z,28
2018-01-29T12:31:47.388Z,25
2018-01-29T12:32:47.777Z,23.6
2018-01-29T12:33:47.710Z,23.6
2018-01-29T12:34:47.553Z,26.5
2018-01-29T12:35:46.949Z,27.4
2018-01-29T12:36:46.905Z,24.3
2018-01-29T12:37:47.156Z,23.3
2018-01-29T12:38:47.027Z,23.8
2018-01-29T12:39:47.170Z,26.7
2018-01-29T12:40:47.128Z,26.9
2018-01-29T12:41:46.759Z,23.9
2018-01-29T12:42:46.591Z,23.1
2018-01-29T12:43:46.401Z,24.3
2018-01-29T12:44:46.598Z,27.1
2018-01-29T12:45:46.977Z,26.4
2018-01-29T12:46:46.135Z,23.8
2018-01-29T12:47:46.253Z,23
2018-01-29T12:48:46.308Z,24.8
2018-01-29T12:49:46.428Z,27.2
2018-01-29T12:50:46.008Z,25.4
2018-01-29T12:51:45.753Z,23.3
2018-01-29T12:52:45.875Z,22.6
2018-01-29T12:53:46.186Z,25.1
2018-01-29T12:54:46.295Z,27.4
2018-01-29T12:55:45.725Z,24.9
2018-01-29T12:56:45.455Z,23.1
2018-01-29T12:57:45.317Z,22.8
2018-01-29T12:58:45.495Z,25.9
2018-01-29T12:59:46.037Z,27.9
2018-01-29T13:00:45.411Z,24.8
2018-01-29T13:01:45.176Z,23.2
2018-01-29T13:02:45.430Z,23.4
2018-01-29T13:03:45.213Z,27.5
2018-01-29T13:04:45.299Z,29.4
2018-01-29T13:05:44.989Z,26.1
2018-01-29T13:06:45.039Z,24.8
2018-01-29T13:07:45.023Z,25.4
2018-01-29T13:08:44.905Z,29
2018-01-29T13:09:45.010Z,30
2018-01-29T13:10:44.438Z,26.4
2018-01-29T13:11:45.030Z,25.3
2018-01-29T13:12:44.732Z,26.1
2018-01-29T13:13:44.521Z,28.3
2018-01-29T13:14:44.761Z,27.5
2018-01-29T13:16:44.363Z,23.9
2018-01-29T13:17:44.057Z,25.9
2018-01-29T13:18:43.865Z,29.3
2018-01-29T13:19:43.999Z,28.5
2018-01-29T13:20:44.246Z,25.7
2018-01-29T13:21:43.788Z,25
2018-01-29T13:22:44.093Z,27.1